EST,Max TemperatureF,Mean TemperatureF,Min TemperatureF,Max Dew PointF,MeanDew PointF,Min DewpointF,Max Humidity, Mean Humidity, Min Humidity, Max Sea Level PressureIn, Mean Sea Level PressureIn, Min Sea Level PressureIn, Max VisibilityMiles, Mean VisibilityMiles, Min VisibilityMiles, Max Wind SpeedMPH, Mean Wind SpeedMPH, Max Gust SpeedMPH,PrecipitationIn, CloudCover, Events, WindDirDegrees
2012-12-1,24,21,18,23,17,6,100,85,57,30.70,30.60,30.52,10,4,2,4,0,,0.04,8,Rain-Snow,350
2012-12-2,41,32,24,40,30,23,100,97,92,30.52,30.25,29.96,9,3,0,7,0,,0.33,8,Fog-Rain,178
2012-12-3,52,38,24,43,34,23,100,84,54,30.33,30.12,29.93,10,9,4,14,3,21,0.00,3,,350
2012-12-4,42,32,21,42,32,19,100,97,86,30.32,30.18,29.93,10,4,0,5,0,,0.01,8,Fog,139
2012-12-5,52,40,27,48,34,16,100,79,49,30.08,29.88,29.77,10,6,0,16,4,31,0.16,7,Fog-Rain,286
2012-12-6,37,27,17,18,15,13,92,67,36,30.30,30.25,30.10,10,10,10,6,2,,0.00,0,,340
2012-12-7,39,28,16,32,23,14,100,82,49,30.28,30.15,30.03,10,9,4,10,1,,0.01,3,Rain,186
2012-12-8,36,32,28,34,31,28,100,97,89,30.04,29.94,29.86,10,4,0,4,0,,0.07,7,Fog-Rain,230
2012-12-9,45,36,26,29,26,22,100,80,40,30.32,30.11,29.91,10,6,0,14,1,21,0.00,4,Fog,304
2012-12-10,33,32,30,34,31,25,100,95,75,30.21,29.80,29.48,10,4,1,8,3,,0.63,8,Rain-Snow,1
2012-12-11,39,28,17,35,25,15,100,76,52,30.12,29.85,29.55,10,10,10,14,4,25,0.00,2,,267
2012-12-12,37,24,12,22,17,10,92,75,47,30.40,30.31,30.14,10,10,10,7,0,,0.00,1,,350
2012-12-13,41,28,16,24,20,14,96,78,43,30.45,30.38,30.26,10,10,10,7,0,,0.00,1,,177
2012-12-14,46,29,12,26,21,11,96,68,37,30.24,30.12,30.01,10,10,10,15,2,24,0.00,3,,285
2012-12-15,37,27,16,22,8,-5,81,47,18,30.40,30.30,30.15,10,10,10,12,5,20,0.00,1,Rain,26
2012-12-16,19,18,17,18,12,2,93,76,47,30.38,30.27,30.21,10,4,0,7,1,,0.56,8,Fog-Snow,76
2012-12-17,30,24,19,29,23,16,96,91,86,30.21,30.09,29.95,6,2,0,7,3,,0.51,8,Fog-Rain-Snow,360
2012-12-18,37,34,30,36,34,30,100,97,93,29.93,29.63,29.45,6,3,1,10,7,,0.68,8,Rain,360
2012-12-19,39,34,28,36,33,28,100,90,70,30.02,29.67,29.44,10,9,3,12,6,17,0.13,8,Rain,349
2012-12-20,37,31,25,32,28,23,96,86,70,30.22,30.14,30.05,10,10,10,7,1,,0.01,7,Rain,113
2012-12-21,50,40,30,48,36,27,100,93,70,30.07,29.46,29.06,10,4,1,18,4,32,1.56,8,Rain-Snow,74
2012-12-22,37,30,24,30,22,8,76,65,49,29.53,29.29,29.13,10,10,9,12,7,26,0.00,8,Snow,243
2012-12-23,35,28,21,22,13,7,72,54,40,29.76,29.71,29.57,10,10,10,17,9,37,0.00,4,,264
2012-12-24,32,24,17,25,14,10,88,64,44,30.06,29.98,29.79,10,10,10,9,3,16,0.00,1,,305
2012-12-25,28,17,5,24,17,2,96,89,84,30.23,30.08,30.02,10,6,0,5,0,,0.07,5,Fog-Snow,258
2012-12-26,30,16,1,19,12,-2,96,76,56,30.32,30.26,30.12,10,10,10,10,1,16,0.00,1,,43
2012-12-27,30,26,21,27,24,15,93,89,69,30.08,29.71,29.52,10,2,0,20,11,29,0.41,8,Fog-Snow,16
2012-12-28,33,26,19,22,18,15,92,69,52,29.97,29.83,29.63,10,10,10,10,5,18,0.00,2,,262
2012-12-29,25,15,5,23,18,2,93,88,83,29.99,29.75,29.50,10,4,0,8,1,,0.13,6,Fog-Snow,8
2012-12-30,24,18,10,22,11,0,96,71,54,29.85,29.63,29.45,10,9,2,18,5,30,0.02,4,Snow,289
2012-12-31,34,25,16,22,14,3,72,58,48,29.88,29.82,29.65,10,10,10,16,9,33,0.00,2,,259